Time;durP1;ratioP1;P1;durP2;ratioP2;P2;SDS_P1;SDS_P2;PMS_P1;PMS_P2;Temp;Humidity;BMP_temperature;BMP_pressure;BME280_temperature;BME280_humidity;BME280_pressure;Samples;Min_cycle;Max_cycle;Signal;HPM_P1;HPM_P2
2023/05/20 00:01:03;;;;;;;7.97;4.70;;;12.30;99.90;;;;;;5046906;28;20281;-75
2023/05/20 00:03:30;;;;;;;10.63;5.17;;;12.20;99.90;;;;;;5049508;28;20269;-75
2023/05/20 00:05:57;;;;;;;12.67;5.80;;;12.20;99.90;;;;;;5050746;28;20215;-75
2023/05/20 00:08:24;;;;;;;13.93;5.23;;;12.20;99.90;;;;;;5049412;28;20197;-76
2023/05/20 00:10:50;;;;;;;11.73;5.23;;;12.40;99.90;;;;;;5032236;28;20266;-75
2023/05/20 00:13:17;;;;;;;11.07;5.30;;;12.20;99.90;;;;;;5050992;28;20297;-74
2023/05/20 00:15:44;;;;;;;11.13;5.40;;;12.20;99.90;;;;;;5047178;28;20281;-75
2023/05/20 00:18:11;;;;;;;10.20;5.40;;;12.30;99.90;;;;;;5042398;28;20247;-74
2023/05/20 00:20:38;;;;;;;12.50;6.40;;;12.30;99.90;;;;;;5050116;28;20269;-75
2023/05/20 00:23:04;;;;;;;9.57;6.20;;;12.30;99.90;;;;;;5045927;28;20251;-76
2023/05/20 00:25:31;;;;;;;12.00;5.43;;;12.30;99.90;;;;;;5029990;28;20243;-75
2023/05/20 00:27:58;;;;;;;8.57;5.70;;;12.20;99.90;;;;;;5046842;28;20220;-76
2023/05/20 00:30:25;;;;;;;14.57;5.83;;;12.20;99.90;;;;;;5048728;28;20216;-75
2023/05/20 00:32:52;;;;;;;11.07;5.73;;;12.20;99.90;;;;;;5044230;28;20282;-75
2023/05/20 00:35:19;;;;;;;10.10;5.43;;;12.20;99.90;;;;;;5044352;28;20693;-75
2023/05/20 00:37:46;;;;;;;8.17;5.73;;;12.20;99.90;;;;;;5045527;28;20227;-75
2023/05/20 00:40:13;;;;;;;10.73;6.03;;;12.10;99.90;;;;;;5027343;28;20219;-75
2023/05/20 00:42:41;;;;;;;9.97;6.17;;;12.20;99.90;;;;;;5047860;28;20201;-75
2023/05/20 00:45:08;;;;;;;13.20;6.20;;;12.20;99.90;;;;;;5044452;28;20277;-76
2023/05/20 00:47:36;;;;;;;16.50;7.17;;;12.20;99.90;;;;;;5029608;28;20207;-75
2023/05/20 00:50:03;;;;;;;11.27;5.40;;;12.20;99.90;;;;;;5048834;28;20241;-75
2023/05/20 00:52:31;;;;;;;10.27;5.90;;;12.20;99.90;;;;;;5048187;28;20220;-75
2023/05/20 00:54:58;;;;;;;10.43;5.37;;;12.20;99.90;;;;;;5048008;28;20250;-75
2023/05/20 00:57:25;;;;;;;10.43;5.20;;;12.20;99.90;;;;;;5048448;28;20294;-76
2023/05/20 00:59:53;;;;;;;12.03;6.00;;;12.30;99.90;;;;;;5030688;28;20225;-75
2023/05/20 01:02:20;;;;;;;13.43;6.00;;;12.20;99.90;;;;;;5049800;28;20210;-75
2023/05/20 01:04:47;;;;;;;11.60;6.07;;;12.30;99.90;;;;;;5048127;28;20239;-74
2023/05/20 01:07:18;;;;;;;11.03;6.10;;;12.20;99.90;;;;;;5048091;28;20199;-75
2023/05/20 01:09:45;;;;;;;15.00;6.57;;;12.20;99.90;;;;;;5026601;28;20630;-76
2023/05/20 01:12:14;;;;;;;11.00;5.80;;;12.20;99.90;;;;;;5046089;28;20209;-74
2023/05/20 01:14:59;;;;;;;11.53;5.90;;;12.20;99.90;;;;;;5048552;28;20269;-74
2023/05/20 01:17:29;;;;;;;11.10;6.40;;;12.20;99.90;;;;;;5047057;28;20306;-76
2023/05/20 01:19:58;;;;;;;12.43;6.13;;;12.20;99.90;;;;;;5048730;28;20717;-75
2023/05/20 01:22:26;;;;;;;16.57;6.23;;;12.10;99.90;;;;;;5047991;28;20217;-74
2023/05/20 01:24:54;;;;;;;12.83;6.03;;;12.00;99.90;;;;;;5049438;28;20730;-75
2023/05/20 01:27:21;;;;;;;10.03;6.00;;;12.00;99.90;;;;;;5047964;28;20622;-76
2023/05/20 01:29:50;;;;;;;10.90;6.00;;;12.00;99.90;;;;;;5050941;28;20624;-76
2023/05/20 01:32:21;;;;;;;8.07;5.57;;;11.90;99.90;;;;;;5003482;28;1396620;-75
2023/05/20 01:34:50;;;;;;;12.80;6.03;;;11.90;99.90;;;;;;5030586;28;20211;-75
2023/05/20 01:37:18;;;;;;;13.20;6.40;;;11.90;99.90;;;;;;5034687;28;20232;-75
2023/05/20 01:39:47;;;;;;;12.30;6.40;;;11.90;99.90;;;;;;5034923;28;20278;-75
2023/05/20 01:42:15;;;;;;;10.77;6.23;;;11.90;99.90;;;;;;5034555;28;20215;-75
2023/05/20 01:44:42;;;;;;;13.10;6.23;;;11.90;99.90;;;;;;5052328;28;20582;-75
2023/05/20 01:47:09;;;;;;;12.40;6.27;;;11.90;99.90;;;;;;5034388;28;20276;-75
2023/05/20 01:49:36;;;;;;;8.87;5.43;;;11.90;99.90;;;;;;5051615;28;20204;-76
2023/05/20 01:52:03;;;;;;;12.30;5.93;;;11.90;99.90;;;;;;5052666;28;20293;-75
2023/05/20 01:54:30;;;;;;;12.80;6.30;;;11.90;99.90;;;;;;5052347;28;20206;-74
2023/05/20 01:56:57;;;;;;;12.80;6.23;;;11.90;99.90;;;;;;5028563;28;20726;-75
2023/05/20 01:59:24;;;;;;;15.90;6.10;;;11.90;99.90;;;;;;5046467;28;20538;-75
2023/05/20 02:01:50;;;;;;;12.87;5.93;;;11.80;99.90;;;;;;5049929;28;20208;-74
2023/05/20 02:04:17;;;;;;;11.43;5.83;;;11.80;99.90;;;;;;5052369;28;20234;-74
2023/05/20 02:06:44;;;;;;;9.00;5.77;;;11.80;99.90;;;;;;5053287;28;20618;-74
2023/05/20 02:09:12;;;;;;;10.67;5.90;;;11.80;99.90;;;;;;5052020;28;21087;-75
2023/05/20 02:11:39;;;;;;;14.07;5.93;;;11.80;99.90;;;;;;5052087;28;20243;-75
2023/05/20 02:14:06;;;;;;;15.80;6.47;;;11.80;99.90;;;;;;5053281;28;20206;-74
2023/05/20 02:16:33;;;;;;;10.93;6.10;;;11.80;99.90;;;;;;5052133;28;20277;-74
2023/05/20 02:19:00;;;;;;;10.20;6.23;;;11.80;99.90;;;;;;5044738;28;20249;-74
2023/05/20 02:21:27;;;;;;;10.00;6.00;;;11.80;99.90;;;;;;5051918;28;20649;-76
2023/05/20 02:23:54;;;;;;;13.43;6.23;;;11.80;99.90;;;;;;5048669;28;20265;-75
2023/05/20 02:26:21;;;;;;;13.97;6.40;;;11.80;99.90;;;;;;5049412;28;20219;-75
2023/05/20 02:28:49;;;;;;;11.13;5.97;;;11.70;99.90;;;;;;5037149;28;20635;-75
2023/05/20 02:31:16;;;;;;;15.27;6.30;;;11.70;99.90;;;;;;5051360;28;20351;-75
2023/05/20 02:33:44;;;;;;;9.23;5.87;;;11.70;99.90;;;;;;5045444;28;20210;-75
2023/05/20 02:36:11;;;;;;;12.77;6.60;;;11.70;99.90;;;;;;5051334;28;20733;-75
2023/05/20 02:38:38;;;;;;;11.33;6.30;;;11.70;99.90;;;;;;5048630;28;20212;-76
2023/05/20 02:41:05;;;;;;;14.90;6.70;;;11.60;99.90;;;;;;5047833;28;20316;-75
2023/05/20 02:43:33;;;;;;;12.53;7.37;;;11.60;99.90;;;;;;5043451;28;20303;-75
2023/05/20 02:46:00;;;;;;;9.93;6.40;;;11.60;99.90;;;;;;5051359;28;20246;-75
2023/05/20 02:48:27;;;;;;;13.00;6.37;;;11.60;99.90;;;;;;5051096;28;20552;-75
2023/05/20 02:50:54;;;;;;;12.10;5.80;;;11.50;99.90;;;;;;5030398;28;20285;-75
2023/05/20 02:53:21;;;;;;;14.70;6.60;;;11.50;99.90;;;;;;5047552;28;20208;-73
2023/05/20 02:55:48;;;;;;;11.53;6.43;;;11.60;99.90;;;;;;5039905;28;20302;-74
2023/05/20 02:58:16;;;;;;;12.57;6.17;;;11.50;99.90;;;;;;5016978;28;20276;-76
2023/05/20 03:00:43;;;;;;;12.40;5.90;;;11.60;99.90;;;;;;5051480;28;20310;-76
2023/05/20 03:03:09;;;;;;;10.50;5.83;;;11.50;99.90;;;;;;5033245;28;20736;-75
2023/05/20 03:05:36;;;;;;;10.83;6.03;;;11.50;99.90;;;;;;5045363;28;20195;-77
2023/05/20 03:08:08;;;;;;;17.83;6.93;;;11.50;99.90;;;;;;5045160;28;20224;-75
2023/05/20 03:10:38;;;;;;;15.33;6.77;;;11.50;99.90;;;;;;5048609;28;20203;-76
2023/05/20 03:13:10;;;;;;;11.70;6.07;;;11.50;99.90;;;;;;5045585;28;20256;-76
2023/05/20 03:15:38;;;;;;;13.93;6.57;;;11.50;99.90;;;;;;5032772;28;20214;-75
2023/05/20 03:18:05;;;;;;;15.23;7.03;;;11.50;99.90;;;;;;5047654;28;20223;-75
2023/05/20 03:20:37;;;;;;;13.63;7.00;;;11.50;99.90;;;;;;5047146;28;20729;-75
2023/05/20 03:23:04;;;;;;;11.23;6.37;;;11.40;99.90;;;;;;5051002;28;20241;-74
2023/05/20 03:25:31;;;;;;;14.67;7.20;;;11.40;99.90;;;;;;5047449;28;20232;-74
2023/05/20 03:27:58;;;;;;;13.07;6.97;;;11.30;99.90;;;;;;5050805;28;20211;-73
2023/05/20 03:30:26;;;;;;;14.07;7.17;;;11.30;99.90;;;;;;5046386;28;20587;-74
2023/05/20 03:32:56;;;;;;;13.30;6.33;;;11.30;99.90;;;;;;5050153;28;20214;-75
2023/05/20 03:35:23;;;;;;;15.17;6.43;;;11.30;99.90;;;;;;5050202;28;21129;-76
2023/05/20 03:37:52;;;;;;;16.70;6.60;;;11.30;99.90;;;;;;5031212;28;20631;-76
2023/05/20 03:40:20;;;;;;;10.63;5.93;;;11.20;99.90;;;;;;5050437;28;20207;-75
2023/05/20 03:42:46;;;;;;;12.37;6.60;;;11.20;99.90;;;;;;5049385;28;20225;-74
2023/05/20 03:45:13;;;;;;;12.03;6.90;;;11.20;99.90;;;;;;5050278;28;20287;-75
2023/05/20 03:47:40;;;;;;;15.33;7.20;;;11.20;99.90;;;;;;5046721;28;20207;-75
2023/05/20 03:50:07;;;;;;;10.07;6.60;;;11.10;99.90;;;;;;5050200;28;20207;-75
2023/05/20 03:52:34;;;;;;;16.30;7.43;;;11.10;99.90;;;;;;5028668;28;20195;-75
2023/05/20 03:55:01;;;;;;;11.97;7.20;;;11.10;99.90;;;;;;5025260;28;20214;-75
2023/05/20 03:57:28;;;;;;;14.87;7.23;;;11.10;99.90;;;;;;5048431;28;20693;-76
2023/05/20 03:59:55;;;;;;;10.50;6.27;;;11.00;99.90;;;;;;5046889;28;20215;-75
2023/05/20 04:02:21;;;;;;;10.60;6.70;;;11.00;99.90;;;;;;5046375;28;20789;-74
2023/05/20 04:04:51;;;;;;;15.40;6.83;;;11.00;99.90;;;;;;5031222;28;20229;-76
2023/05/20 04:07:18;;;;;;;13.47;6.70;;;11.00;99.90;;;;;;5051236;28;20205;-75
2023/05/20 04:09:45;;;;;;;17.03;6.77;;;11.00;99.90;;;;;;5046963;28;20216;-75
2023/05/20 04:12:12;;;;;;;14.40;6.83;;;11.00;99.90;;;;;;5031982;28;20201;-75
2023/05/20 04:14:41;;;;;;;14.27;6.53;;;11.00;99.90;;;;;;5050925;28;20534;-74
2023/05/20 04:17:08;;;;;;;12.87;6.07;;;11.00;99.90;;;;;;5045265;28;20316;-75
2023/05/20 04:19:37;;;;;;;14.33;6.70;;;11.00;99.90;;;;;;5046028;28;20259;-75
2023/05/20 04:22:04;;;;;;;14.47;6.97;;;11.00;99.90;;;;;;5049844;28;20209;-76
2023/05/20 04:24:30;;;;;;;10.73;6.57;;;11.10;99.90;;;;;;5037782;28;20236;-74
2023/05/20 04:26:57;;;;;;;12.20;6.73;;;11.00;99.90;;;;;;5046131;28;20235;-75
2023/05/20 04:29:24;;;;;;;13.03;6.63;;;11.10;99.90;;;;;;5030782;28;20217;-75
2023/05/20 04:31:51;;;;;;;13.33;6.40;;;11.10;99.90;;;;;;5057368;28;20599;-76
2023/05/20 04:34:19;;;;;;;11.73;6.27;;;11.10;99.90;;;;;;5067151;28;20317;-75
2023/05/20 04:36:45;;;;;;;9.43;6.53;;;11.10;99.90;;;;;;5067880;28;20316;-76
2023/05/20 04:39:14;;;;;;;12.17;6.63;;;11.20;99.90;;;;;;5069272;28;20201;-74
2023/05/20 04:41:41;;;;;;;10.30;6.00;;;11.20;99.90;;;;;;5064684;28;20210;-75
2023/05/20 04:44:08;;;;;;;10.47;5.87;;;11.20;99.90;;;;;;5059789;28;20689;-75
2023/05/20 04:46:35;;;;;;;12.27;6.13;;;11.40;99.90;;;;;;5061898;28;20211;-74
2023/05/20 04:49:03;;;;;;;10.40;6.13;;;11.50;99.90;;;;;;5066638;28;20642;-75
2023/05/20 04:51:30;;;;;;;13.20;6.03;;;11.40;99.90;;;;;;5067476;28;20779;-76
2023/05/20 04:53:57;;;;;;;17.20;6.80;;;11.30;99.90;;;;;;5065482;28;20632;-75
2023/05/20 04:56:25;;;;;;;11.73;5.87;;;11.50;99.90;;;;;;5064646;28;20243;-76
2023/05/20 04:58:51;;;;;;;10.90;5.87;;;11.50;99.90;;;;;;5057754;28;20215;-76
2023/05/20 05:01:19;;;;;;;11.37;5.80;;;11.60;99.90;;;;;;5060954;28;20662;-76
2023/05/20 05:03:46;;;;;;;9.37;5.70;;;11.60;99.90;;;;;;5059952;28;20270;-77
2023/05/20 05:06:12;;;;;;;10.17;6.37;;;11.70;99.90;;;;;;5060561;28;20210;-75
2023/05/20 05:08:39;;;;;;;8.83;6.00;;;11.70;99.90;;;;;;5062795;28;20640;-75
2023/05/20 05:11:07;;;;;;;16.53;6.17;;;11.80;99.90;;;;;;5065012;28;20199;-77
2023/05/20 05:13:34;;;;;;;9.03;5.53;;;11.80;99.90;;;;;;5056094;28;20199;-76
2023/05/20 05:16:02;;;;;;;13.67;5.40;;;11.90;99.90;;;;;;5062834;28;20226;-77
2023/05/20 05:18:29;;;;;;;10.87;5.60;;;12.00;99.90;;;;;;5059203;28;20293;-75
2023/05/20 05:21:03;;;;;;;8.90;5.40;;;12.00;99.90;;;;;;5066803;28;20207;-77
2023/05/20 05:23:31;;;;;;;8.60;5.77;;;12.10;99.90;;;;;;5060934;28;20636;-75
2023/05/20 05:25:58;;;;;;;9.67;4.73;;;12.10;99.90;;;;;;5067190;28;20683;-76
2023/05/20 05:28:25;;;;;;;9.27;4.90;;;12.20;99.90;;;;;;5062092;28;20682;-76
2023/05/20 05:30:55;;;;;;;10.87;5.87;;;12.30;99.90;;;;;;5063669;28;20240;-76
2023/05/20 05:33:22;;;;;;;10.50;4.97;;;12.30;99.90;;;;;;5062016;28;20223;-76
2023/05/20 05:35:49;;;;;;;8.30;4.70;;;12.50;99.90;;;;;;5060626;28;20265;-76
2023/05/20 05:38:16;;;;;;;7.03;4.10;;;12.80;99.90;;;;;;5067118;28;20216;-77
2023/05/20 05:40:43;;;;;;;10.37;4.33;;;13.60;99.90;;;;;;5064252;28;20592;-76
2023/05/20 05:43:10;;;;;;;6.07;3.47;;;14.50;99.90;;;;;;5065883;28;20236;-76
2023/05/20 05:45:38;;;;;;;5.88;3.78;;;15.70;99.90;;;;;;5063876;28;20319;-76
2023/05/20 05:48:05;;;;;;;6.25;3.55;;;16.60;99.90;;;;;;5058035;28;20212;-75
2023/05/20 05:50:31;;;;;;;5.90;3.60;;;17.30;99.90;;;;;;5063679;28;20281;-76
2023/05/20 05:52:58;;;;;;;5.55;3.13;;;17.90;99.90;;;;;;5059547;28;20200;-76
2023/05/20 05:55:25;;;;;;;6.35;3.35;;;18.60;99.90;;;;;;5059248;28;20649;-76
2023/05/20 05:57:52;;;;;;;4.85;3.20;;;19.40;99.90;;;;;;5074524;28;20315;-76
2023/05/20 06:00:19;;;;;;;6.72;3.15;;;20.00;99.90;;;;;;5060776;28;20206;-75
2023/05/20 06:02:47;;;;;;;4.32;2.58;;;20.50;99.90;;;;;;5062907;28;20300;-77
2023/05/20 06:05:14;;;;;;;6.80;3.35;;;21.00;99.90;;;;;;5072885;28;20235;-76
2023/05/20 06:07:41;;;;;;;3.97;2.47;;;21.40;99.90;;;;;;5072090;28;20209;-77
2023/05/20 06:10:08;;;;;;;4.22;2.80;;;21.60;99.90;;;;;;5067990;28;20597;-75
2023/05/20 06:12:35;;;;;;;6.00;3.05;;;22.00;99.90;;;;;;5066600;28;20550;-77
2023/05/20 06:15:02;;;;;;;3.00;2.55;;;22.30;99.90;;;;;;5062070;28;20212;-78
2023/05/20 06:17:29;;;;;;;3.30;2.40;;;22.60;99.90;;;;;;5068181;28;20226;-76
2023/05/20 06:19:56;;;;;;;4.53;2.63;;;22.80;99.90;;;;;;5068854;28;20207;-78
2023/05/20 06:22:23;;;;;;;4.65;2.50;;;22.80;99.90;;;;;;5071110;28;20204;-76
2023/05/20 06:24:50;;;;;;;3.42;2.50;;;22.90;99.90;;;;;;5065081;28;20641;-76
2023/05/20 06:27:17;;;;;;;3.03;2.50;;;22.90;99.90;;;;;;5066351;28;20244;-75
2023/05/20 06:29:44;;;;;;;3.60;2.38;;;23.00;99.90;;;;;;5065423;28;20228;-77
2023/05/20 06:32:11;;;;;;;3.08;2.58;;;23.20;99.90;;;;;;5051834;28;20775;-77
2023/05/20 06:34:38;;;;;;;2.85;2.28;;;23.50;99.90;;;;;;5048400;28;20198;-76
2023/05/20 06:37:05;;;;;;;2.85;2.53;;;23.80;99.90;;;;;;5033028;28;20240;-76
2023/05/20 06:39:32;;;;;;;3.47;2.50;;;24.20;99.90;;;;;;5050076;28;20205;-76
2023/05/20 06:41:58;;;;;;;5.03;2.50;;;24.50;99.90;;;;;;5051916;28;20263;-76
2023/05/20 06:44:26;;;;;;;4.25;2.55;;;24.80;99.90;;;;;;5050252;28;20673;-76
2023/05/20 06:46:53;;;;;;;3.55;2.65;;;25.10;99.90;;;;;;5045220;28;20566;-80
2023/05/20 06:49:20;;;;;;;4.00;2.10;;;24.90;99.90;;;;;;5030281;28;20209;-77
2023/05/20 06:51:47;;;;;;;2.97;2.17;;;25.00;99.90;;;;;;5031786;28;20201;-78
2023/05/20 06:54:14;;;;;;;3.22;2.42;;;25.00;99.90;;;;;;5032533;28;20212;-78
2023/05/20 06:56:55;;;;;;;2.67;2.00;;;24.90;99.90;;;;;;5045317;28;20217;-81
2023/05/20 07:03:36;;;;;;;3.75;2.22;;;24.60;99.90;;;;;;5005587;28;20205;-79
2023/05/20 07:06:03;;;;;;;5.15;2.35;;;24.70;99.90;;;;;;5005521;28;20198;-80
2023/05/20 07:08:29;;;;;;;2.92;2.05;;;24.70;99.90;;;;;;5041249;28;20204;-79
2023/05/20 07:10:56;;;;;;;4.40;2.17;;;24.90;99.90;;;;;;5039831;28;20237;-79
2023/05/20 07:13:24;;;;;;;4.28;2.28;;;25.20;99.90;;;;;;5043016;28;20198;-78
2023/05/20 07:15:51;;;;;;;2.65;2.13;;;25.20;99.60;;;;;;5044532;28;20221;-79
2023/05/20 07:18:18;;;;;;;3.55;2.30;;;25.30;99.70;;;;;;5046381;28;20270;-78
2023/05/20 07:20:45;;;;;;;2.80;2.15;;;25.50;99.40;;;;;;5045790;28;20224;-78
2023/05/20 07:23:22;;;;;;;2.83;2.10;;;25.80;98.60;;;;;;5044995;28;20267;-79
2023/05/20 07:26:41;;;;;;;2.92;2.10;;;25.80;98.70;;;;;;5029675;28;20198;-79
2023/05/20 07:29:09;;;;;;;2.35;2.03;;;26.00;97.70;;;;;;5007569;28;20815;-75
2023/05/20 07:31:36;;;;;;;3.03;2.28;;;25.90;97.10;;;;;;5044402;28;20236;-76
2023/05/20 07:34:03;;;;;;;3.38;2.25;;;25.90;97.10;;;;;;5061772;28;20254;-76
2023/05/20 07:36:33;;;;;;;3.15;2.20;;;25.80;96.80;;;;;;5067400;28;20205;-75
2023/05/20 07:39:00;;;;;;;4.68;2.90;;;25.60;96.30;;;;;;5064159;28;21006;-76
2023/05/20 07:41:33;;;;;;;4.45;2.40;;;25.50;96.50;;;;;;5063438;28;20225;-76
2023/05/20 07:44:03;;;;;;;5.57;2.30;;;25.20;96.00;;;;;;5063975;28;20212;-76
2023/05/20 07:46:30;;;;;;;3.28;2.70;;;25.20;96.40;;;;;;5069962;28;20204;-76
2023/05/20 07:48:57;;;;;;;4.15;2.63;;;25.20;96.60;;;;;;5066482;28;20208;-76
2023/05/20 07:51:24;;;;;;;4.20;2.50;;;25.20;96.80;;;;;;5067129;28;20245;-74
2023/05/20 07:53:51;;;;;;;4.28;2.10;;;25.00;96.20;;;;;;5070171;28;20332;-75
2023/05/20 07:56:18;;;;;;;5.53;3.47;;;24.80;96.30;;;;;;5070847;28;20201;-74
2023/05/20 07:58:52;;;;;;;3.70;2.38;;;25.10;96.60;;;;;;5078530;28;20227;-76
2023/05/20 08:01:20;;;;;;;3.65;2.20;;;24.90;96.00;;;;;;5063383;28;20286;-76
2023/05/20 08:03:46;;;;;;;3.70;2.10;;;24.80;96.50;;;;;;5044984;28;20227;-75
2023/05/20 08:06:13;;;;;;;3.97;2.50;;;24.80;96.50;;;;;;5069305;28;20328;-76
2023/05/20 08:08:41;;;;;;;4.07;2.45;;;24.90;96.40;;;;;;5068149;28;20216;-75
2023/05/20 08:11:09;;;;;;;2.97;2.22;;;24.90;96.20;;;;;;5068630;28;20661;-75
2023/05/20 08:13:36;;;;;;;3.47;2.47;;;24.90;95.80;;;;;;5063441;28;20218;-74
2023/05/20 08:16:04;;;;;;;3.08;2.30;;;24.80;96.30;;;;;;5070511;28;20252;-74
2023/05/20 08:18:33;;;;;;;3.85;2.45;;;24.70;96.20;;;;;;5068172;28;20786;-74
2023/05/20 08:21:06;;;;;;;3.83;2.70;;;24.70;96.20;;;;;;5070589;28;20586;-75
2023/05/20 08:23:35;;;;;;;3.30;2.10;;;24.90;96.40;;;;;;5068983;28;20211;-73
2023/05/20 08:26:06;;;;;;;5.05;2.95;;;24.70;95.60;;;;;;5068849;28;20204;-74
2023/05/20 08:28:35;;;;;;;4.18;2.70;;;24.80;96.00;;;;;;5065067;28;20224;-75
2023/05/20 08:31:03;;;;;;;2.85;2.15;;;24.60;95.40;;;;;;5061285;28;20236;-74
2023/05/20 08:33:29;;;;;;;4.20;2.58;;;24.70;95.80;;;;;;5041859;28;20313;-75
2023/05/20 08:35:56;;;;;;;3.22;1.95;;;24.80;95.70;;;;;;5045447;28;20209;-74
2023/05/20 08:38:23;;;;;;;3.47;2.33;;;24.90;95.50;;;;;;5049305;28;20287;-75
2023/05/20 08:40:55;;;;;;;3.65;2.15;;;25.00;95.10;;;;;;5044150;28;20739;-75
2023/05/20 08:43:25;;;;;;;2.80;2.33;;;25.20;95.30;;;;;;5047658;28;20194;-74
2023/05/20 08:45:52;;;;;;;2.80;2.08;;;25.20;95.00;;;;;;5042551;28;20290;-74
2023/05/20 08:48:22;;;;;;;2.72;2.08;;;25.40;94.40;;;;;;5043519;28;20263;-75
2023/05/20 08:50:50;;;;;;;3.88;2.20;;;25.40;93.80;;;;;;5041689;28;20224;-75
2023/05/20 08:53:20;;;;;;;2.92;2.17;;;25.10;93.90;;;;;;5042410;28;20209;-74
2023/05/20 08:55:56;;;;;;;2.75;2.08;;;25.00;94.00;;;;;;5047813;28;20215;-74
2023/05/20 08:58:28;;;;;;;3.25;1.80;;;24.90;93.80;;;;;;5045487;28;20761;-75
2023/05/20 09:00:55;;;;;;;2.85;2.20;;;24.90;94.10;;;;;;5045439;28;20224;-74
2023/05/20 09:03:23;;;;;;;3.22;2.03;;;24.80;93.90;;;;;;5042081;28;20224;-74
2023/05/20 09:05:51;;;;;;;2.65;2.45;;;24.60;93.50;;;;;;5044091;28;20227;-75
2023/05/20 09:08:23;;;;;;;3.22;2.00;;;24.40;93.70;;;;;;5043452;28;20216;-74
2023/05/20 09:10:52;;;;;;;3.00;2.20;;;24.20;93.60;;;;;;5043853;28;20251;-74
2023/05/20 09:13:19;;;;;;;5.15;2.25;;;23.70;94.40;;;;;;5045739;28;20779;-75
2023/05/20 09:15:49;;;;;;;4.60;2.20;;;23.50;94.90;;;;;;5044097;28;20300;-76
2023/05/20 09:18:16;;;;;;;2.58;2.25;;;23.70;95.00;;;;;;5044651;28;20555;-76
2023/05/20 09:20:46;;;;;;;4.28;2.13;;;23.70;95.50;;;;;;5045609;28;20193;-79
2023/05/20 09:23:13;;;;;;;2.35;2.00;;;23.90;95.50;;;;;;5045078;28;20205;-81
2023/05/20 09:25:40;;;;;;;5.38;2.17;;;24.00;95.30;;;;;;5047559;28;20365;-76
2023/05/20 09:28:08;;;;;;;3.53;2.30;;;23.90;94.80;;;;;;5022738;28;20213;-78
2023/05/20 09:30:35;;;;;;;3.72;2.40;;;23.90;94.60;;;;;;5041637;28;20275;-78
2023/05/20 09:33:04;;;;;;;1.83;1.60;;;23.80;94.30;;;;;;5049291;28;20201;-75
2023/05/20 09:35:36;;;;;;;3.22;1.75;;;23.60;93.20;;;;;;5048281;28;20205;-74
2023/05/20 09:38:08;;;;;;;2.25;1.70;;;23.30;92.90;;;;;;5045829;28;20236;-73
2023/05/20 09:40:39;;;;;;;4.50;2.30;;;22.90;93.30;;;;;;5049669;28;20601;-74
2023/05/20 09:43:06;;;;;;;3.03;1.80;;;22.80;92.90;;;;;;5046042;28;20205;-77
2023/05/20 09:45:33;;;;;;;2.75;1.83;;;22.60;94.20;;;;;;5048813;28;20386;-78
2023/05/20 09:48:02;;;;;;;4.00;1.92;;;22.80;94.70;;;;;;5050452;28;20256;-77
2023/05/20 09:50:30;;;;;;;3.38;1.90;;;22.80;95.20;;;;;;5050994;28;20247;-77
2023/05/20 09:53:01;;;;;;;2.83;1.85;;;23.10;94.90;;;;;;5056290;28;20209;-78
2023/05/20 09:55:29;;;;;;;1.83;1.60;;;23.20;95.00;;;;;;5048059;28;20189;-75
2023/05/20 09:58:00;;;;;;;3.97;2.10;;;23.30;94.90;;;;;;5051890;28;20228;-76
2023/05/20 10:00:27;;;;;;;6.15;2.15;;;23.20;94.30;;;;;;5048021;28;20217;-74
2023/05/20 10:02:55;;;;;;;2.78;2.00;;;22.90;93.70;;;;;;5048098;28;20594;-75
2023/05/20 10:05:37;;;;;;;2.65;2.38;;;22.50;94.00;;;;;;5055216;28;20193;-72
2023/05/20 10:08:29;;;;;;;3.75;2.10;;;22.40;94.50;;;;;;5050615;28;20588;-74
2023/05/20 10:11:23;;;;;;;3.13;1.80;;;22.50;95.90;;;;;;5048157;28;20613;-74
2023/05/20 10:14:18;;;;;;;2.88;1.77;;;22.50;94.20;;;;;;5045936;28;20205;-73
2023/05/20 10:17:08;;;;;;;4.20;2.30;;;22.50;95.40;;;;;;5048845;28;20248;-72
2023/05/20 10:19:35;;;;;;;3.70;1.98;;;22.60;94.70;;;;;;5048299;28;20233;-72
2023/05/20 10:22:03;;;;;;;2.30;1.50;;;22.60;94.70;;;;;;5051876;28;20255;-73
2023/05/20 10:24:33;;;;;;;4.15;2.55;;;22.60;94.70;;;;;;5048972;28;20197;-73
2023/05/20 10:27:07;;;;;;;3.30;1.60;;;22.60;94.70;;;;;;5046303;28;20616;-73
2023/05/20 10:29:52;;;;;;;2.63;1.95;;;22.70;95.30;;;;;;5041412;28;20252;-75
2023/05/20 10:32:31;;;;;;;4.65;2.17;;;22.70;95.70;;;;;;5044338;28;20324;-73
2023/05/20 10:35:04;;;;;;;4.35;1.80;;;22.70;95.10;;;;;;5044305;28;20228;-73
2023/05/20 10:37:38;;;;;;;3.53;1.65;;;22.50;94.50;;;;;;5046000;28;20196;-73
2023/05/20 10:40:10;;;;;;;5.57;2.20;;;22.30;94.80;;;;;;5046551;28;20209;-73
2023/05/20 10:42:37;;;;;;;5.50;1.95;;;22.40;94.60;;;;;;5024614;28;20288;-74
2023/05/20 10:45:05;;;;;;;2.63;1.70;;;22.30;94.40;;;;;;5048852;28;20225;-74
2023/05/20 10:47:33;;;;;;;2.38;2.10;;;22.40;95.60;;;;;;5046620;28;20217;-74
2023/05/20 10:50:06;;;;;;;2.63;2.00;;;22.70;96.00;;;;;;5043270;28;20206;-73
2023/05/20 10:52:37;;;;;;;2.53;1.80;;;22.80;95.60;;;;;;5046953;28;20596;-75
2023/05/20 10:55:05;;;;;;;2.67;1.90;;;22.70;94.90;;;;;;5041962;28;20278;-76
2023/05/20 10:57:33;;;;;;;2.58;1.80;;;22.60;95.40;;;;;;5032304;28;20680;-74
2023/05/20 11:00:00;;;;;;;2.83;1.73;;;22.80;95.20;;;;;;5025494;28;20225;-75
2023/05/20 11:02:28;;;;;;;2.08;1.88;;;22.90;94.50;;;;;;5031800;28;20205;-75
2023/05/20 11:04:57;;;;;;;2.72;1.60;;;22.40;93.90;;;;;;5030846;28;20220;-73
2023/05/20 11:07:28;;;;;;;3.15;1.70;;;22.20;94.60;;;;;;5029345;28;20202;-76
2023/05/20 11:09:56;;;;;;;4.05;1.63;;;22.20;95.00;;;;;;5033712;28;20394;-75
2023/05/20 11:12:24;;;;;;;3.00;1.88;;;22.30;95.30;;;;;;5031977;28;20696;-75
2023/05/20 11:14:52;;;;;;;2.55;1.50;;;22.00;94.70;;;;;;5030787;28;20213;-74
2023/05/20 11:17:19;;;;;;;3.42;1.75;;;22.10;95.70;;;;;;5040713;28;20255;-75
2023/05/20 11:19:50;;;;;;;2.58;1.55;;;22.30;95.60;;;;;;5022583;28;20239;-75
2023/05/20 11:22:17;;;;;;;3.13;1.70;;;22.20;94.50;;;;;;5030177;28;20201;-75
2023/05/20 11:24:45;;;;;;;3.42;1.80;;;22.10;94.50;;;;;;5029910;28;20568;-75
2023/05/20 11:27:12;;;;;;;3.33;1.80;;;22.00;94.50;;;;;;5025205;28;20205;-77
2023/05/20 11:29:39;;;;;;;3.10;1.50;;;22.00;95.30;;;;;;5033212;28;20217;-77
2023/05/20 11:32:07;;;;;;;2.92;1.67;;;22.30;96.00;;;;;;5042914;28;20236;-76
2023/05/20 11:34:35;;;;;;;4.30;1.60;;;22.40;95.90;;;;;;5039968;28;20297;-77
2023/05/20 11:37:07;;;;;;;5.10;1.88;;;22.50;95.40;;;;;;5028869;28;20222;-77
2023/05/20 11:39:34;;;;;;;2.78;1.45;;;22.50;94.50;;;;;;5043112;28;20278;-74
2023/05/20 11:42:02;;;;;;;3.40;1.67;;;22.80;95.40;;;;;;5046171;28;20712;-75
2023/05/20 11:44:29;;;;;;;2.20;1.55;;;22.80;95.30;;;;;;5048274;28;20225;-77
2023/05/20 11:47:00;;;;;;;2.95;1.70;;;23.00;95.30;;;;;;5049663;28;20215;-76
2023/05/20 11:49:27;;;;;;;2.88;1.80;;;23.10;95.20;;;;;;5040321;28;20213;-73
2023/05/20 11:51:55;;;;;;;3.92;1.65;;;23.10;95.50;;;;;;5048983;28;20198;-79
2023/05/20 11:54:25;;;;;;;4.97;1.90;;;23.20;95.20;;;;;;5047098;28;20201;-83
2023/05/20 11:56:53;;;;;;;2.25;1.73;;;23.20;94.90;;;;;;5040463;28;20197;-79
2023/05/20 11:59:23;;;;;;;1.70;1.42;;;23.10;94.40;;;;;;5029895;28;20233;-79
2023/05/20 12:01:49;;;;;;;1.80;1.60;;;22.90;94.80;;;;;;5048117;28;20205;-80
2023/05/20 12:04:17;;;;;;;3.38;1.63;;;22.70;95.30;;;;;;5046334;28;20700;-79
2023/05/20 12:06:45;;;;;;;4.88;1.60;;;22.70;95.00;;;;;;5053931;28;20288;-78
2023/05/20 12:09:12;;;;;;;2.63;1.50;;;22.70;94.80;;;;;;5045447;28;20202;-77
2023/05/20 12:11:40;;;;;;;1.70;1.60;;;22.80;94.80;;;;;;5042402;28;20243;-77
2023/05/20 12:14:07;;;;;;;3.28;2.00;;;22.70;94.40;;;;;;5043981;28;20613;-79
2023/05/20 12:16:36;;;;;;;3.90;1.92;;;22.50;94.70;;;;;;5020471;28;20198;-76
2023/05/20 12:19:04;;;;;;;2.15;1.73;;;22.50;95.70;;;;;;5044642;28;20307;-78
2023/05/20 12:21:31;;;;;;;3.80;1.65;;;22.60;95.20;;;;;;5030195;28;20205;-77
2023/05/20 12:23:58;;;;;;;3.25;1.70;;;22.70;94.80;;;;;;5046417;28;20286;-76
2023/05/20 12:26:26;;;;;;;4.35;1.73;;;22.60;94.70;;;;;;5041802;28;20213;-75
2023/05/20 12:28:54;;;;;;;4.22;1.52;;;22.60;95.70;;;;;;5046958;28;20209;-74
2023/05/20 12:31:21;;;;;;;2.28;1.42;;;22.80;95.60;;;;;;5049405;28;20312;-73
2023/05/20 12:33:48;;;;;;;2.97;1.55;;;22.80;95.30;;;;;;5045535;28;20208;-76
2023/05/20 12:36:15;;;;;;;2.65;1.48;;;22.80;95.40;;;;;;5045456;28;20285;-77
2023/05/20 12:38:42;;;;;;;4.30;1.63;;;22.60;94.90;;;;;;5049676;28;20247;-76
2023/05/20 12:41:08;;;;;;;2.67;1.60;;;22.30;95.20;;;;;;5049884;28;20208;-76
2023/05/20 12:43:36;;;;;;;2.55;1.65;;;22.30;95.90;;;;;;5028453;28;20296;-76
2023/05/20 12:46:03;;;;;;;2.70;1.80;;;22.30;95.70;;;;;;5040600;28;20225;-76
2023/05/20 12:48:30;;;;;;;2.45;1.70;;;22.40;95.40;;;;;;5049617;28;20911;-76
2023/05/20 12:50:57;;;;;;;3.55;1.80;;;22.60;95.60;;;;;;5031532;28;20296;-77
2023/05/20 12:53:24;;;;;;;2.47;1.92;;;22.40;95.10;;;;;;5044409;28;20210;-76